sensor_id;sensor_type;location;lat;lon;timestamp;P1;durP1;ratioP1;P2;durP2;ratioP2
10389;SDS011;5241;47.830;12.972;2023-05-10T00:01:39;7.90;;;7.10;;
10389;SDS011;5241;47.830;12.972;2023-05-10T00:04:05;7.20;;;6.50;;
10389;SDS011;5241;47.830;12.972;2023-05-10T00:06:31;7.17;;;6.47;;
10389;SDS011;5241;47.830;12.972;2023-05-10T00:08:56;7.07;;;6.37;;
10389;SDS011;5241;47.830;12.972;2023-05-10T00:11:22;6.97;;;6.03;;
10389;SDS011;5241;47.830;12.972;2023-05-10T00:13:47;7.30;;;6.03;;
10389;SDS011;5241;47.830;12.972;2023-05-10T00:16:13;6.43;;;5.83;;
10389;SDS011;5241;47.830;12.972;2023-05-10T00:18:39;6.60;;;6.00;;
10389;SDS011;5241;47.830;12.972;2023-05-10T00:21:05;5.93;;;5.30;;
10389;SDS011;5241;47.830;12.972;2023-05-10T00:23:31;6.20;;;5.60;;
10389;SDS011;5241;47.830;12.972;2023-05-10T00:25:56;6.77;;;6.03;;
10389;SDS011;5241;47.830;12.972;2023-05-10T00:28:22;6.53;;;5.27;;
10389;SDS011;5241;47.830;12.972;2023-05-10T00:30:48;5.63;;;5.13;;
10389;SDS011;5241;47.830;12.972;2023-05-10T00:33:13;7.10;;;5.30;;
10389;SDS011;5241;47.830;12.972;2023-05-10T00:35:49;4.97;;;4.57;;
10389;SDS011;5241;47.830;12.972;2023-05-10T00:38:15;5.47;;;4.67;;
10389;SDS011;5241;47.830;12.972;2023-05-10T00:40:40;5.17;;;4.67;;
10389;SDS011;5241;47.830;12.972;2023-05-10T00:43:06;7.50;;;4.77;;
10389;SDS011;5241;47.830;12.972;2023-05-10T00:45:32;5.23;;;4.73;;
10389;SDS011;5241;47.830;12.972;2023-05-10T00:47:59;4.77;;;4.37;;
10389;SDS011;5241;47.830;12.972;2023-05-10T00:50:27;5.30;;;4.10;;
10389;SDS011;5241;47.830;12.972;2023-05-10T00:52:53;4.27;;;3.87;;
10389;SDS011;5241;47.830;12.972;2023-05-10T00:55:19;3.10;;;2.90;;
10389;SDS011;5241;47.830;12.972;2023-05-10T00:57:44;2.20;;;2.00;;
10389;SDS011;5241;47.830;12.972;2023-05-10T01:00:10;2.60;;;2.40;;
10389;SDS011;5241;47.830;12.972;2023-05-10T01:02:37;2.73;;;2.40;;
10389;SDS011;5241;47.830;12.972;2023-05-10T01:05:03;2.63;;;2.10;;
10389;SDS011;5241;47.830;12.972;2023-05-10T01:07:30;2.00;;;1.80;;
10389;SDS011;5241;47.830;12.972;2023-05-10T01:09:55;1.87;;;1.47;;
10389;SDS011;5241;47.830;12.972;2023-05-10T01:12:22;1.70;;;1.60;;
10389;SDS011;5241;47.830;12.972;2023-05-10T01:14:47;2.00;;;1.37;;
10389;SDS011;5241;47.830;12.972;2023-05-10T01:17:13;3.30;;;1.97;;
10389;SDS011;5241;47.830;12.972;2023-05-10T01:19:41;1.60;;;1.50;;
10389;SDS011;5241;47.830;12.972;2023-05-10T01:25:07;2.37;;;1.80;;
10389;SDS011;5241;47.830;12.972;2023-05-10T01:30:42;1.57;;;1.47;;
10389;SDS011;5241;47.830;12.972;2023-05-10T01:36:01;3.67;;;1.90;;
10389;SDS011;5241;47.830;12.972;2023-05-10T01:39:15;1.83;;;1.63;;
10389;SDS011;5241;47.830;12.972;2023-05-10T01:41:56;2.10;;;1.90;;
10389;SDS011;5241;47.830;12.972;2023-05-10T01:44:34;2.00;;;1.80;;
10389;SDS011;5241;47.830;12.972;2023-05-10T01:47:12;2.20;;;1.90;;
10389;SDS011;5241;47.830;12.972;2023-05-10T01:49:43;2.43;;;2.10;;
10389;SDS011;5241;47.830;12.972;2023-05-10T01:52:15;3.30;;;2.30;;
10389;SDS011;5241;47.830;12.972;2023-05-10T01:54:50;1.93;;;1.60;;
10389;SDS011;5241;47.830;12.972;2023-05-10T01:57:20;3.37;;;1.77;;
10389;SDS011;5241;47.830;12.972;2023-05-10T01:59:49;1.77;;;1.63;;
10389;SDS011;5241;47.830;12.972;2023-05-10T02:02:20;2.07;;;1.50;;
10389;SDS011;5241;47.830;12.972;2023-05-10T02:04:49;1.57;;;1.47;;
10389;SDS011;5241;47.830;12.972;2023-05-10T02:07:17;2.57;;;1.60;;
10389;SDS011;5241;47.830;12.972;2023-05-10T02:09:44;1.97;;;1.70;;
10389;SDS011;5241;47.830;12.972;2023-05-10T02:12:14;2.10;;;1.80;;
10389;SDS011;5241;47.830;12.972;2023-05-10T02:14:41;1.60;;;1.50;;
10389;SDS011;5241;47.830;12.972;2023-05-10T02:17:07;2.53;;;2.30;;
10389;SDS011;5241;47.830;12.972;2023-05-10T02:19:35;2.40;;;2.20;;
10389;SDS011;5241;47.830;12.972;2023-05-10T02:22:03;5.23;;;2.93;;
10389;SDS011;5241;47.830;12.972;2023-05-10T02:24:29;3.37;;;2.40;;
10389;SDS011;5241;47.830;12.972;2023-05-10T02:26:57;2.30;;;2.10;;
10389;SDS011;5241;47.830;12.972;2023-05-10T02:29:25;2.73;;;2.10;;
10389;SDS011;5241;47.830;12.972;2023-05-10T02:31:52;3.10;;;1.80;;
10389;SDS011;5241;47.830;12.972;2023-05-10T02:34:19;2.10;;;1.80;;
10389;SDS011;5241;47.830;12.972;2023-05-10T02:36:46;5.20;;;2.20;;
10389;SDS011;5241;47.830;12.972;2023-05-10T02:39:12;3.17;;;1.97;;
10389;SDS011;5241;47.830;12.972;2023-05-10T02:41:40;3.47;;;2.07;;
10389;SDS011;5241;47.830;12.972;2023-05-10T02:44:07;2.10;;;1.90;;
10389;SDS011;5241;47.830;12.972;2023-05-10T02:46:34;2.33;;;2.13;;
10389;SDS011;5241;47.830;12.972;2023-05-10T02:49:01;3.30;;;2.30;;
10389;SDS011;5241;47.830;12.972;2023-05-10T02:51:28;2.43;;;2.20;;
10389;SDS011;5241;47.830;12.972;2023-05-10T02:54:01;2.57;;;2.30;;
10389;SDS011;5241;47.830;12.972;2023-05-10T02:56:34;4.27;;;2.20;;
10389;SDS011;5241;47.830;12.972;2023-05-10T02:59:01;3.60;;;2.83;;
10389;SDS011;5241;47.830;12.972;2023-05-10T03:01:27;2.67;;;2.40;;
10389;SDS011;5241;47.830;12.972;2023-05-10T03:03:52;3.03;;;2.47;;
10389;SDS011;5241;47.830;12.972;2023-05-10T03:06:18;5.00;;;2.60;;
10389;SDS011;5241;47.830;12.972;2023-05-10T03:08:44;3.80;;;2.67;;
10389;SDS011;5241;47.830;12.972;2023-05-10T03:13:46;4.13;;;3.10;;
10389;SDS011;5241;47.830;12.972;2023-05-10T03:16:34;3.83;;;3.23;;
10389;SDS011;5241;47.830;12.972;2023-05-10T03:21:50;5.97;;;4.10;;
10389;SDS011;5241;47.830;12.972;2023-05-10T03:24:18;6.30;;;4.00;;
10389;SDS011;5241;47.830;12.972;2023-05-10T03:26:46;5.67;;;4.20;;
10389;SDS011;5241;47.830;12.972;2023-05-10T03:29:13;7.93;;;4.60;;
10389;SDS011;5241;47.830;12.972;2023-05-10T03:31:40;5.13;;;4.40;;
10389;SDS011;5241;47.830;12.972;2023-05-10T03:34:06;5.97;;;5.13;;
10389;SDS011;5241;47.830;12.972;2023-05-10T03:36:32;9.67;;;5.80;;
10389;SDS011;5241;47.830;12.972;2023-05-10T03:38:58;5.97;;;5.27;;
10389;SDS011;5241;47.830;12.972;2023-05-10T03:41:23;5.50;;;4.67;;
10389;SDS011;5241;47.830;12.972;2023-05-10T03:43:50;12.93;;;6.57;;
10389;SDS011;5241;47.830;12.972;2023-05-10T03:46:16;8.47;;;6.63;;
10389;SDS011;5241;47.830;12.972;2023-05-10T03:48:41;8.20;;;7.07;;
10389;SDS011;5241;47.830;12.972;2023-05-10T03:51:07;10.10;;;8.30;;
10389;SDS011;5241;47.830;12.972;2023-05-10T03:53:33;9.93;;;7.50;;
10389;SDS011;5241;47.830;12.972;2023-05-10T03:55:58;8.70;;;7.50;;
10389;SDS011;5241;47.830;12.972;2023-05-10T03:58:24;9.43;;;7.67;;
10389;SDS011;5241;47.830;12.972;2023-05-10T04:00:50;9.60;;;8.60;;
10389;SDS011;5241;47.830;12.972;2023-05-10T04:03:16;8.80;;;7.93;;
10389;SDS011;5241;47.830;12.972;2023-05-10T04:05:42;9.80;;;7.87;;
10389;SDS011;5241;47.830;12.972;2023-05-10T04:08:08;10.90;;;8.97;;
10389;SDS011;5241;47.830;12.972;2023-05-10T04:10:33;8.30;;;7.50;;
10389;SDS011;5241;47.830;12.972;2023-05-10T04:12:59;9.67;;;8.67;;
10389;SDS011;5241;47.830;12.972;2023-05-10T04:15:25;9.10;;;8.13;;
10389;SDS011;5241;47.830;12.972;2023-05-10T04:17:50;9.70;;;6.93;;
10389;SDS011;5241;47.830;12.972;2023-05-10T04:20:16;8.73;;;7.47;;
10389;SDS011;5241;47.830;12.972;2023-05-10T04:22:42;8.07;;;7.10;;
10389;SDS011;5241;47.830;12.972;2023-05-10T04:25:07;8.33;;;7.03;;
10389;SDS011;5241;47.830;12.972;2023-05-10T04:27:33;7.63;;;6.93;;
10389;SDS011;5241;47.830;12.972;2023-05-10T04:29:59;8.03;;;7.17;;
10389;SDS011;5241;47.830;12.972;2023-05-10T04:32:24;9.17;;;7.40;;
10389;SDS011;5241;47.830;12.972;2023-05-10T04:34:50;8.23;;;7.33;;
10389;SDS011;5241;47.830;12.972;2023-05-10T04:37:17;9.67;;;7.37;;
10389;SDS011;5241;47.830;12.972;2023-05-10T04:39:42;9.47;;;7.10;;
10389;SDS011;5241;47.830;12.972;2023-05-10T04:42:08;8.63;;;7.37;;
10389;SDS011;5241;47.830;12.972;2023-05-10T04:44:34;8.23;;;7.43;;
10389;SDS011;5241;47.830;12.972;2023-05-10T04:46:59;7.57;;;6.77;;
10389;SDS011;5241;47.830;12.972;2023-05-10T04:49:27;7.73;;;6.57;;
10389;SDS011;5241;47.830;12.972;2023-05-10T04:51:52;10.33;;;7.20;;
10389;SDS011;5241;47.830;12.972;2023-05-10T04:54:18;8.07;;;7.27;;
10389;SDS011;5241;47.830;12.972;2023-05-10T04:56:43;8.50;;;7.17;;
10389;SDS011;5241;47.830;12.972;2023-05-10T04:59:09;10.47;;;7.47;;
10389;SDS011;5241;47.830;12.972;2023-05-10T05:01:35;10.07;;;7.30;;
10389;SDS011;5241;47.830;12.972;2023-05-10T05:04:01;9.47;;;7.90;;
10389;SDS011;5241;47.830;12.972;2023-05-10T05:06:26;8.53;;;7.67;;
10389;SDS011;5241;47.830;12.972;2023-05-10T05:08:52;8.40;;;7.57;;
10389;SDS011;5241;47.830;12.972;2023-05-10T05:11:20;9.47;;;8.10;;
10389;SDS011;5241;47.830;12.972;2023-05-10T05:13:49;8.47;;;7.60;;
10389;SDS011;5241;47.830;12.972;2023-05-10T05:16:15;11.03;;;8.03;;
10389;SDS011;5241;47.830;12.972;2023-05-10T05:18:40;11.70;;;8.27;;
10389;SDS011;5241;47.830;12.972;2023-05-10T05:21:15;9.10;;;8.07;;
10389;SDS011;5241;47.830;12.972;2023-05-10T05:23:41;9.20;;;7.73;;
10389;SDS011;5241;47.830;12.972;2023-05-10T05:26:07;9.20;;;8.10;;
10389;SDS011;5241;47.830;12.972;2023-05-10T05:28:33;9.17;;;7.80;;
10389;SDS011;5241;47.830;12.972;2023-05-10T05:31:02;9.43;;;7.60;;
10389;SDS011;5241;47.830;12.972;2023-05-10T05:33:30;9.60;;;8.03;;
10389;SDS011;5241;47.830;12.972;2023-05-10T05:35:56;12.63;;;8.73;;
10389;SDS011;5241;47.830;12.972;2023-05-10T05:38:21;8.83;;;7.80;;
10389;SDS011;5241;47.830;12.972;2023-05-10T05:40:47;8.77;;;7.87;;
10389;SDS011;5241;47.830;12.972;2023-05-10T05:43:12;8.67;;;7.33;;
10389;SDS011;5241;47.830;12.972;2023-05-10T05:45:38;8.33;;;7.10;;
10389;SDS011;5241;47.830;12.972;2023-05-10T05:48:04;10.20;;;7.43;;
10389;SDS011;5241;47.830;12.972;2023-05-10T05:50:29;8.47;;;6.63;;
10389;SDS011;5241;47.830;12.972;2023-05-10T05:52:56;8.13;;;6.60;;
10389;SDS011;5241;47.830;12.972;2023-05-10T05:55:22;7.83;;;6.27;;
10389;SDS011;5241;47.830;12.972;2023-05-10T05:57:48;6.97;;;6.27;;
10389;SDS011;5241;47.830;12.972;2023-05-10T06:00:14;8.60;;;6.77;;
10389;SDS011;5241;47.830;12.972;2023-05-10T06:02:40;6.20;;;5.60;;
10389;SDS011;5241;47.830;12.972;2023-05-10T06:05:06;9.57;;;6.50;;
10389;SDS011;5241;47.830;12.972;2023-05-10T06:07:31;9.40;;;6.60;;
10389;SDS011;5241;47.830;12.972;2023-05-10T06:09:57;9.63;;;6.13;;
10389;SDS011;5241;47.830;12.972;2023-05-10T06:12:23;7.43;;;6.53;;
10389;SDS011;5241;47.830;12.972;2023-05-10T06:14:48;9.67;;;7.20;;
10389;SDS011;5241;47.830;12.972;2023-05-10T06:17:14;8.03;;;6.97;;
10389;SDS011;5241;47.830;12.972;2023-05-10T06:19:39;8.03;;;6.60;;
10389;SDS011;5241;47.830;12.972;2023-05-10T06:22:05;7.30;;;6.50;;
10389;SDS011;5241;47.830;12.972;2023-05-10T06:24:30;7.10;;;6.40;;
10389;SDS011;5241;47.830;12.972;2023-05-10T06:26:56;7.70;;;6.90;;
10389;SDS011;5241;47.830;12.972;2023-05-10T06:29:21;8.40;;;7.03;;
10389;SDS011;5241;47.830;12.972;2023-05-10T06:31:47;8.90;;;6.97;;
10389;SDS011;5241;47.830;12.972;2023-05-10T06:34:13;9.17;;;7.70;;
10389;SDS011;5241;47.830;12.972;2023-05-10T06:36:38;8.13;;;7.33;;
10389;SDS011;5241;47.830;12.972;2023-05-10T06:39:04;7.80;;;7.00;;
10389;SDS011;5241;47.830;12.972;2023-05-10T06:41:30;10.33;;;8.40;;
10389;SDS011;5241;47.830;12.972;2023-05-10T06:43:56;9.10;;;8.30;;
10389;SDS011;5241;47.830;12.972;2023-05-10T06:46:21;9.13;;;8.03;;
10389;SDS011;5241;47.830;12.972;2023-05-10T06:48:49;9.17;;;7.90;;
10389;SDS011;5241;47.830;12.972;2023-05-10T06:51:15;11.67;;;10.37;;
10389;SDS011;5241;47.830;12.972;2023-05-10T06:53:48;12.37;;;11.10;;
10389;SDS011;5241;47.830;12.972;2023-05-10T06:56:14;7.90;;;7.10;;
10389;SDS011;5241;47.830;12.972;2023-05-10T06:58:39;8.43;;;7.03;;
10389;SDS011;5241;47.830;12.972;2023-05-10T07:01:05;8.63;;;7.80;;
10389;SDS011;5241;47.830;12.972;2023-05-10T07:03:31;10.20;;;8.30;;
10389;SDS011;5241;47.830;12.972;2023-05-10T07:06:03;9.73;;;8.83;;
10389;SDS011;5241;47.830;12.972;2023-05-10T07:08:30;10.27;;;8.73;;
10389;SDS011;5241;47.830;12.972;2023-05-10T07:11:02;8.40;;;7.60;;
10389;SDS011;5241;47.830;12.972;2023-05-10T07:13:29;10.17;;;6.97;;
10389;SDS011;5241;47.830;12.972;2023-05-10T07:15:56;9.13;;;7.17;;
10389;SDS011;5241;47.830;12.972;2023-05-10T07:18:21;8.97;;;6.87;;
10389;SDS011;5241;47.830;12.972;2023-05-10T07:20:47;8.20;;;6.63;;
10389;SDS011;5241;47.830;12.972;2023-05-10T07:23:13;8.53;;;6.67;;
10389;SDS011;5241;47.830;12.972;2023-05-10T07:25:38;8.33;;;6.43;;
10389;SDS011;5241;47.830;12.972;2023-05-10T07:28:04;7.27;;;6.33;;
10389;SDS011;5241;47.830;12.972;2023-05-10T07:30:29;7.43;;;6.53;;
10389;SDS011;5241;47.830;12.972;2023-05-10T07:32:55;8.13;;;6.47;;
10389;SDS011;5241;47.830;12.972;2023-05-10T07:35:21;8.23;;;5.93;;
10389;SDS011;5241;47.830;12.972;2023-05-10T07:37:46;6.67;;;5.93;;
10389;SDS011;5241;47.830;12.972;2023-05-10T07:40:12;6.77;;;5.80;;
10389;SDS011;5241;47.830;12.972;2023-05-10T07:42:37;6.60;;;5.90;;
10389;SDS011;5241;47.830;12.972;2023-05-10T07:45:03;8.70;;;6.10;;
10389;SDS011;5241;47.830;12.972;2023-05-10T07:47:29;7.87;;;6.10;;
10389;SDS011;5241;47.830;12.972;2023-05-10T07:49:54;6.97;;;5.70;;
10389;SDS011;5241;47.830;12.972;2023-05-10T07:52:20;8.30;;;5.70;;
10389;SDS011;5241;47.830;12.972;2023-05-10T07:54:45;6.93;;;6.03;;
10389;SDS011;5241;47.830;12.972;2023-05-10T07:57:11;5.87;;;5.33;;
10389;SDS011;5241;47.830;12.972;2023-05-10T07:59:39;7.10;;;5.43;;
10389;SDS011;5241;47.830;12.972;2023-05-10T08:02:05;5.90;;;4.80;;
10389;SDS011;5241;47.830;12.972;2023-05-10T08:04:31;5.97;;;5.37;;
10389;SDS011;5241;47.830;12.972;2023-05-10T08:06:56;7.03;;;5.73;;
10389;SDS011;5241;47.830;12.972;2023-05-10T08:09:22;6.90;;;5.70;;
10389;SDS011;5241;47.830;12.972;2023-05-10T08:11:48;7.87;;;6.20;;
10389;SDS011;5241;47.830;12.972;2023-05-10T08:14:15;10.63;;;6.77;;
10389;SDS011;5241;47.830;12.972;2023-05-10T08:16:40;9.17;;;7.00;;
10389;SDS011;5241;47.830;12.972;2023-05-10T08:19:06;8.77;;;7.23;;
10389;SDS011;5241;47.830;12.972;2023-05-10T08:21:31;8.90;;;8.00;;
10389;SDS011;5241;47.830;12.972;2023-05-10T08:23:57;8.63;;;7.27;;
10389;SDS011;5241;47.830;12.972;2023-05-10T08:26:22;8.17;;;7.07;;
10389;SDS011;5241;47.830;12.972;2023-05-10T08:28:48;7.83;;;5.97;;
10389;SDS011;5241;47.830;12.972;2023-05-10T08:31:14;3.00;;;1.50;;
10389;SDS011;5241;47.830;12.972;2023-05-10T08:33:40;0.93;;;0.90;;
10389;SDS011;5241;47.830;12.972;2023-05-10T08:36:06;2.30;;;1.03;;
10389;SDS011;5241;47.830;12.972;2023-05-10T08:38:31;0.73;;;0.73;;
10389;SDS011;5241;47.830;12.972;2023-05-10T08:40:57;2.30;;;1.00;;
10389;SDS011;5241;47.830;12.972;2023-05-10T08:43:25;1.90;;;0.87;;
10389;SDS011;5241;47.830;12.972;2023-05-10T08:45:53;1.10;;;1.00;;
10389;SDS011;5241;47.830;12.972;2023-05-10T08:48:20;1.77;;;0.80;;
10389;SDS011;5241;47.830;12.972;2023-05-10T08:50:48;0.90;;;0.90;;
10389;SDS011;5241;47.830;12.972;2023-05-10T08:53:19;1.60;;;1.10;;
10389;SDS011;5241;47.830;12.972;2023-05-10T08:55:46;2.03;;;0.80;;
10389;SDS011;5241;47.830;12.972;2023-05-10T08:58:12;1.80;;;0.90;;
10389;SDS011;5241;47.830;12.972;2023-05-10T09:00:37;1.87;;;0.90;;
10389;SDS011;5241;47.830;12.972;2023-05-10T09:03:03;2.00;;;0.90;;
10389;SDS011;5241;47.830;12.972;2023-05-10T09:05:29;1.83;;;1.10;;
10389;SDS011;5241;47.830;12.972;2023-05-10T09:07:55;1.50;;;1.20;;
10389;SDS011;5241;47.830;12.972;2023-05-10T09:10:21;1.20;;;1.00;;
10389;SDS011;5241;47.830;12.972;2023-05-10T09:12:47;1.97;;;1.30;;
10389;SDS011;5241;47.830;12.972;2023-05-10T09:15:16;1.50;;;1.20;;
10389;SDS011;5241;47.830;12.972;2023-05-10T09:17:44;1.20;;;1.10;;
10389;SDS011;5241;47.830;12.972;2023-05-10T09:20:09;1.63;;;1.20;;
10389;SDS011;5241;47.830;12.972;2023-05-10T09:22:35;2.17;;;1.40;;
10389;SDS011;5241;47.830;12.972;2023-05-10T09:25:35;1.80;;;1.60;;
10389;SDS011;5241;47.830;12.972;2023-05-10T09:27:54;2.73;;;1.50;;
10389;SDS011;5241;47.830;12.972;2023-05-10T09:30:24;1.57;;;1.47;;
10389;SDS011;5241;47.830;12.972;2023-05-10T09:32:54;1.67;;;1.43;;
10389;SDS011;5241;47.830;12.972;2023-05-10T09:35:22;1.90;;;1.13;;
10389;SDS011;5241;47.830;12.972;2023-05-10T09:37:50;1.20;;;1.10;;
10389;SDS011;5241;47.830;12.972;2023-05-10T09:40:17;2.17;;;1.43;;
10389;SDS011;5241;47.830;12.972;2023-05-10T09:42:57;1.70;;;1.60;;
10389;SDS011;5241;47.830;12.972;2023-05-10T09:45:29;2.37;;;1.90;;
10389;SDS011;5241;47.830;12.972;2023-05-10T09:47:56;2.60;;;1.57;;
10389;SDS011;5241;47.830;12.972;2023-05-10T09:50:22;1.67;;;1.40;;
10389;SDS011;5241;47.830;12.972;2023-05-10T09:55:18;2.57;;;1.60;;
10389;SDS011;5241;47.830;12.972;2023-05-10T09:57:46;3.63;;;1.40;;
10389;SDS011;5241;47.830;12.972;2023-05-10T10:00:21;1.50;;;1.40;;
10389;SDS011;5241;47.830;12.972;2023-05-10T10:02:48;1.60;;;1.50;;
10389;SDS011;5241;47.830;12.972;2023-05-10T10:05:19;1.87;;;1.50;;
10389;SDS011;5241;47.830;12.972;2023-05-10T10:07:45;1.50;;;1.40;;
10389;SDS011;5241;47.830;12.972;2023-05-10T10:10:11;1.97;;;1.70;;
10389;SDS011;5241;47.830;12.972;2023-05-10T10:12:38;1.40;;;1.30;;
10389;SDS011;5241;47.830;12.972;2023-05-10T10:15:05;2.63;;;1.90;;
10389;SDS011;5241;47.830;12.972;2023-05-10T10:17:32;2.17;;;1.50;;
10389;SDS011;5241;47.830;12.972;2023-05-10T10:20:03;1.70;;;1.60;;
10389;SDS011;5241;47.830;12.972;2023-05-10T10:22:28;1.87;;;1.77;;
10389;SDS011;5241;47.830;12.972;2023-05-10T10:24:54;1.23;;;1.13;;
10389;SDS011;5241;47.830;12.972;2023-05-10T10:27:24;1.20;;;1.10;;
10389;SDS011;5241;47.830;12.972;2023-05-10T10:30:06;1.30;;;1.20;;
10389;SDS011;5241;47.830;12.972;2023-05-10T10:35:38;2.07;;;1.30;;
10389;SDS011;5241;47.830;12.972;2023-05-10T10:38:05;1.90;;;1.70;;
10389;SDS011;5241;47.830;12.972;2023-05-10T10:40:33;1.53;;;1.43;;
10389;SDS011;5241;47.830;12.972;2023-05-10T10:43:20;2.50;;;1.50;;
10389;SDS011;5241;47.830;12.972;2023-05-10T10:46:09;2.17;;;1.20;;
10389;SDS011;5241;47.830;12.972;2023-05-10T10:48:43;1.87;;;1.10;;
10389;SDS011;5241;47.830;12.972;2023-05-10T10:51:13;1.93;;;1.10;;
10389;SDS011;5241;47.830;12.972;2023-05-10T10:53:39;1.50;;;1.40;;
10389;SDS011;5241;47.830;12.972;2023-05-10T10:56:07;1.80;;;1.70;;
10389;SDS011;5241;47.830;12.972;2023-05-10T10:58:34;1.63;;;1.40;;
10389;SDS011;5241;47.830;12.972;2023-05-10T11:03:35;2.03;;;1.70;;
10389;SDS011;5241;47.830;12.972;2023-05-10T11:06:01;1.70;;;1.60;;
10389;SDS011;5241;47.830;12.972;2023-05-10T11:08:28;2.07;;;1.97;;
10389;SDS011;5241;47.830;12.972;2023-05-10T11:18:38;1.57;;;1.47;;
10389;SDS011;5241;47.830;12.972;2023-05-10T11:21:04;1.40;;;1.30;;
10389;SDS011;5241;47.830;12.972;2023-05-10T11:26:11;1.90;;;1.50;;
10389;SDS011;5241;47.830;12.972;2023-05-10T11:28:46;1.63;;;1.20;;
10389;SDS011;5241;47.830;12.972;2023-05-10T11:31:13;1.33;;;1.23;;
10389;SDS011;5241;47.830;12.972;2023-05-10T11:33:43;1.50;;;1.33;;
10389;SDS011;5241;47.830;12.972;2023-05-10T11:36:14;1.60;;;1.50;;
10389;SDS011;5241;47.830;12.972;2023-05-10T11:38:41;1.57;;;1.47;;
10389;SDS011;5241;47.830;12.972;2023-05-10T11:41:11;1.70;;;1.40;;
10389;SDS011;5241;47.830;12.972;2023-05-10T11:43:38;1.60;;;1.50;;
10389;SDS011;5241;47.830;12.972;2023-05-10T11:46:08;1.20;;;1.10;;
10389;SDS011;5241;47.830;12.972;2023-05-10T11:48:36;2.03;;;1.13;;
10389;SDS011;5241;47.830;12.972;2023-05-10T11:51:04;1.30;;;1.20;;
10389;SDS011;5241;47.830;12.972;2023-05-10T11:53:31;1.57;;;1.30;;
10389;SDS011;5241;47.830;12.972;2023-05-10T11:56:09;1.33;;;1.23;;
10389;SDS011;5241;47.830;12.972;2023-05-10T11:58:35;2.87;;;1.37;;
10389;SDS011;5241;47.830;12.972;2023-05-10T12:01:03;1.60;;;1.30;;
10389;SDS011;5241;47.830;12.972;2023-05-10T12:03:30;2.00;;;1.50;;
10389;SDS011;5241;47.830;12.972;2023-05-10T12:05:56;1.40;;;1.30;;
10389;SDS011;5241;47.830;12.972;2023-05-10T12:08:23;2.33;;;1.27;;
10389;SDS011;5241;47.830;12.972;2023-05-10T12:10:51;2.20;;;1.40;;
10389;SDS011;5241;47.830;12.972;2023-05-10T12:13:28;1.50;;;1.40;;
10389;SDS011;5241;47.830;12.972;2023-05-10T12:15:54;2.67;;;1.30;;
10389;SDS011;5241;47.830;12.972;2023-05-10T12:18:23;1.73;;;1.47;;
10389;SDS011;5241;47.830;12.972;2023-05-10T12:20:51;1.17;;;1.07;;
10389;SDS011;5241;47.830;12.972;2023-05-10T12:23:17;1.20;;;1.10;;
10389;SDS011;5241;47.830;12.972;2023-05-10T12:25:45;1.70;;;1.00;;
10389;SDS011;5241;47.830;12.972;2023-05-10T12:28:11;1.63;;;1.20;;
10389;SDS011;5241;47.830;12.972;2023-05-10T12:30:36;1.70;;;1.27;;
10389;SDS011;5241;47.830;12.972;2023-05-10T12:33:13;1.20;;;1.10;;
10389;SDS011;5241;47.830;12.972;2023-05-10T12:35:48;2.00;;;1.10;;
10389;SDS011;5241;47.830;12.972;2023-05-10T12:40:54;1.73;;;1.40;;
10389;SDS011;5241;47.830;12.972;2023-05-10T12:43:24;1.40;;;1.30;;
10389;SDS011;5241;47.830;12.972;2023-05-10T12:45:49;2.60;;;1.43;;
10389;SDS011;5241;47.830;12.972;2023-05-10T12:48:15;1.37;;;1.27;;
10389;SDS011;5241;47.830;12.972;2023-05-10T12:50:41;1.10;;;1.00;;
10389;SDS011;5241;47.830;12.972;2023-05-10T12:53:06;1.53;;;1.30;;
10389;SDS011;5241;47.830;12.972;2023-05-10T12:55:32;1.00;;;0.93;;
10389;SDS011;5241;47.830;12.972;2023-05-10T12:57:57;1.00;;;1.00;;
10389;SDS011;5241;47.830;12.972;2023-05-10T13:00:23;1.30;;;0.97;;
10389;SDS011;5241;47.830;12.972;2023-05-10T13:02:49;1.07;;;0.87;;
10389;SDS011;5241;47.830;12.972;2023-05-10T13:05:14;1.40;;;1.10;;
10389;SDS011;5241;47.830;12.972;2023-05-10T13:07:40;0.63;;;0.63;;
10389;SDS011;5241;47.830;12.972;2023-05-10T13:10:06;0.63;;;0.63;;
10389;SDS011;5241;47.830;12.972;2023-05-10T13:12:31;1.67;;;0.90;;
10389;SDS011;5241;47.830;12.972;2023-05-10T13:14:57;2.50;;;1.00;;
10389;SDS011;5241;47.830;12.972;2023-05-10T13:17:24;2.07;;;1.00;;
10389;SDS011;5241;47.830;12.972;2023-05-10T13:19:50;1.20;;;0.80;;
10389;SDS011;5241;47.830;12.972;2023-05-10T13:22:16;2.07;;;1.07;;
10389;SDS011;5241;47.830;12.972;2023-05-10T13:24:41;1.20;;;1.00;;
10389;SDS011;5241;47.830;12.972;2023-05-10T13:27:07;1.27;;;1.00;;
10389;SDS011;5241;47.830;12.972;2023-05-10T13:29:32;1.20;;;1.10;;
10389;SDS011;5241;47.830;12.972;2023-05-10T13:31:58;1.30;;;1.20;;
10389;SDS011;5241;47.830;12.972;2023-05-10T13:34:24;1.20;;;1.10;;
10389;SDS011;5241;47.830;12.972;2023-05-10T13:36:50;1.30;;;1.20;;
10389;SDS011;5241;47.830;12.972;2023-05-10T13:39:15;1.50;;;1.40;;
10389;SDS011;5241;47.830;12.972;2023-05-10T13:41:41;2.80;;;1.50;;
10389;SDS011;5241;47.830;12.972;2023-05-10T13:44:07;1.50;;;1.40;;
10389;SDS011;5241;47.830;12.972;2023-05-10T13:46:32;2.33;;;1.30;;
10389;SDS011;5241;47.830;12.972;2023-05-10T13:48:58;1.97;;;1.60;;
10389;SDS011;5241;47.830;12.972;2023-05-10T13:51:24;2.13;;;1.40;;
10389;SDS011;5241;47.830;12.972;2023-05-10T13:53:49;2.10;;;1.67;;
10389;SDS011;5241;47.830;12.972;2023-05-10T13:56:15;2.80;;;2.60;;
10389;SDS011;5241;47.830;12.972;2023-05-10T13:58:40;4.03;;;1.60;;
10389;SDS011;5241;47.830;12.972;2023-05-10T14:01:06;1.83;;;1.60;;
10389;SDS011;5241;47.830;12.972;2023-05-10T14:03:32;1.47;;;1.30;;
10389;SDS011;5241;47.830;12.972;2023-05-10T14:05:58;1.60;;;1.50;;
10389;SDS011;5241;47.830;12.972;2023-05-10T14:08:23;3.23;;;2.13;;
10389;SDS011;5241;47.830;12.972;2023-05-10T14:10:49;4.57;;;2.30;;
10389;SDS011;5241;47.830;12.972;2023-05-10T14:13:15;3.80;;;2.37;;
10389;SDS011;5241;47.830;12.972;2023-05-10T14:15:41;2.73;;;2.27;;
10389;SDS011;5241;47.830;12.972;2023-05-10T14:18:06;3.17;;;1.97;;
10389;SDS011;5241;47.830;12.972;2023-05-10T14:20:32;2.40;;;1.93;;
10389;SDS011;5241;47.830;12.972;2023-05-10T14:22:58;2.83;;;2.10;;
10389;SDS011;5241;47.830;12.972;2023-05-10T14:25:24;3.30;;;2.00;;
10389;SDS011;5241;47.830;12.972;2023-05-10T14:27:50;3.57;;;2.20;;
10389;SDS011;5241;47.830;12.972;2023-05-10T14:30:16;2.30;;;2.10;;
10389;SDS011;5241;47.830;12.972;2023-05-10T14:32:42;3.13;;;2.30;;
10389;SDS011;5241;47.830;12.972;2023-05-10T14:35:07;2.50;;;2.30;;
10389;SDS011;5241;47.830;12.972;2023-05-10T14:37:33;3.20;;;2.10;;
10389;SDS011;5241;47.830;12.972;2023-05-10T14:39:59;3.13;;;2.83;;
10389;SDS011;5241;47.830;12.972;2023-05-10T14:42:25;2.80;;;2.60;;
10389;SDS011;5241;47.830;12.972;2023-05-10T14:44:51;2.50;;;2.30;;
10389;SDS011;5241;47.830;12.972;2023-05-10T14:47:16;2.37;;;1.90;;
10389;SDS011;5241;47.830;12.972;2023-05-10T14:49:42;4.07;;;2.10;;
10389;SDS011;5241;47.830;12.972;2023-05-10T14:52:07;2.13;;;1.70;;
10389;SDS011;5241;47.830;12.972;2023-05-10T14:54:33;3.37;;;1.60;;
10389;SDS011;5241;47.830;12.972;2023-05-10T14:56:58;1.83;;;1.70;;
10389;SDS011;5241;47.830;12.972;2023-05-10T14:59:25;2.60;;;2.40;;
10389;SDS011;5241;47.830;12.972;2023-05-10T15:01:50;2.33;;;1.97;;
10389;SDS011;5241;47.830;12.972;2023-05-10T15:04:16;2.50;;;1.70;;
10389;SDS011;5241;47.830;12.972;2023-05-10T15:06:42;1.93;;;1.80;;
10389;SDS011;5241;47.830;12.972;2023-05-10T15:09:07;3.50;;;2.87;;
10389;SDS011;5241;47.830;12.972;2023-05-10T15:11:33;3.20;;;2.90;;
10389;SDS011;5241;47.830;12.972;2023-05-10T15:13:59;5.00;;;3.77;;
10389;SDS011;5241;47.830;12.972;2023-05-10T15:16:26;4.57;;;3.40;;
10389;SDS011;5241;47.830;12.972;2023-05-10T15:18:52;4.23;;;3.57;;
10389;SDS011;5241;47.830;12.972;2023-05-10T15:21:17;3.03;;;2.73;;
10389;SDS011;5241;47.830;12.972;2023-05-10T15:23:43;2.70;;;2.50;;